TimeCST,TemperatureF,Dew PointF,Humidity,Sea Level PressureIn,VisibilityMPH,Wind Direction,Wind SpeedMPH,Gust SpeedMPH,PrecipitationIn,Events,Conditions,WindDirDegrees,DateUTC
12:10 AM,10.4,1.4,67,30.36,10.0,Calm,Calm,-,N/A,,Clear,0,2013-03-01 06:10:00
12:30 AM,10.4,1.4,67,30.36,10.0,Calm,Calm,-,N/A,,Clear,0,2013-03-01 06:30:00
12:49 AM,10.4,1.4,67,30.37,10.0,Calm,Calm,-,N/A,,Clear,0,2013-03-01 06:49:00
1:10 AM,10.4,1.4,67,30.37,10.0,Calm,Calm,-,N/A,,Clear,0,2013-03-01 07:10:00
1:29 AM,8.6,1.4,73,30.37,10.0,Calm,Calm,-,N/A,,Clear,0,2013-03-01 07:29:00
1:50 AM,10.4,1.4,67,30.37,10.0,Calm,Calm,-,N/A,,Clear,0,2013-03-01 07:50:00
2:09 AM,8.6,-0.4,67,30.38,10.0,Calm,Calm,-,N/A,,Clear,0,2013-03-01 08:09:00
2:30 AM,8.6,-0.4,67,30.38,10.0,Calm,Calm,-,N/A,,Clear,0,2013-03-01 08:30:00
2:49 AM,8.6,-0.4,67,30.38,10.0,NNE,3.5,-,N/A,,Clear,20,2013-03-01 08:49:00
3:09 AM,8.6,-0.4,67,30.39,10.0,Calm,Calm,-,N/A,,Clear,0,2013-03-01 09:09:00
3:50 AM,8.6,-0.4,67,30.39,10.0,Calm,Calm,-,N/A,,Clear,0,2013-03-01 09:50:00
4:10 AM,6.8,-0.4,72,30.40,10.0,Calm,Calm,-,N/A,,Clear,0,2013-03-01 10:10:00
4:30 AM,6.8,-2.2,67,30.41,10.0,North,3.5,-,N/A,,Clear,350,2013-03-01 10:30:00
5:09 AM,6.8,-2.2,67,30.42,10.0,Calm,Calm,-,N/A,,Clear,0,2013-03-01 11:09:00
5:30 AM,3.2,-4.0,72,30.42,10.0,Calm,Calm,-,N/A,,Clear,0,2013-03-01 11:30:00
5:49 AM,3.2,-5.8,66,30.43,10.0,Calm,Calm,-,N/A,,Clear,0,2013-03-01 11:49:00
6:09 AM,3.2,-4.0,72,30.43,10.0,Calm,Calm,-,N/A,,Clear,0,2013-03-01 12:09:00
6:29 AM,3.2,-4.0,72,30.43,10.0,Calm,Calm,-,N/A,,Clear,0,2013-03-01 12:29:00
6:49 AM,3.2,-5.8,66,30.44,10.0,Calm,Calm,-,N/A,,Clear,0,2013-03-01 12:49:00
7:10 AM,3.2,-5.8,66,30.45,10.0,Calm,Calm,-,N/A,,Clear,0,2013-03-01 13:10:00
7:29 AM,3.2,-5.8,66,30.45,10.0,Calm,Calm,-,N/A,,Clear,0,2013-03-01 13:29:00
7:49 AM,3.2,-4.0,72,30.46,10.0,Calm,Calm,-,N/A,,Clear,0,2013-03-01 13:49:00
8:09 AM,5.0,-2.2,72,30.46,10.0,North,3.5,-,N/A,,Clear,350,2013-03-01 14:09:00
8:29 AM,6.8,-2.2,67,30.46,10.0,NE,3.5,-,N/A,,Clear,40,2013-03-01 14:29:00
8:49 AM,8.6,-4.0,57,30.46,10.0,NE,4.6,-,N/A,,Clear,50,2013-03-01 14:49:00
9:09 AM,8.6,-4.0,57,30.47,10.0,NE,3.5,-,N/A,,Clear,40,2013-03-01 15:09:00
9:30 AM,10.4,-4.0,52,30.46,10.0,ENE,3.5,-,N/A,,Clear,70,2013-03-01 15:30:00
9:49 AM,12.2,-2.2,53,30.46,10.0,Calm,Calm,-,N/A,,Clear,0,2013-03-01 15:49:00
10:09 AM,14.0,-2.2,49,30.46,10.0,Calm,Calm,-,N/A,,Clear,0,2013-03-01 16:09:00
10:29 AM,14.0,-2.2,49,30.46,10.0,North,4.6,-,N/A,,Clear,350,2013-03-01 16:29:00
10:50 AM,15.8,-2.2,45,30.46,10.0,NNW,4.6,-,N/A,,Clear,340,2013-03-01 16:50:00
11:10 AM,17.6,-2.2,42,30.46,10.0,WNW,3.5,-,N/A,,Clear,300,2013-03-01 17:10:00
11:30 AM,19.4,-4.0,36,30.46,10.0,NNW,4.6,-,N/A,,Clear,330,2013-03-01 17:30:00
11:49 AM,19.4,-5.8,33,30.45,10.0,North,6.9,-,N/A,,Clear,350,2013-03-01 17:49:00
12:09 PM,19.4,-7.6,30,30.44,10.0,North,6.9,-,N/A,,Clear,360,2013-03-01 18:09:00
12:29 PM,19.4,-5.8,33,30.44,10.0,Calm,Calm,-,N/A,,Clear,0,2013-03-01 18:29:00
12:49 PM,21.2,-7.6,28,30.44,10.0,North,4.6,-,N/A,,Clear,350,2013-03-01 18:49:00
1:30 PM,21.2,-7.6,28,30.43,10.0,North,4.6,-,N/A,,Clear,350,2013-03-01 19:30:00
1:49 PM,23.0,-7.6,26,30.43,10.0,Calm,Calm,-,N/A,,Clear,0,2013-03-01 19:49:00
2:09 PM,23.0,-5.8,28,30.43,10.0,NNE,4.6,-,N/A,,Clear,30,2013-03-01 20:09:00
2:29 PM,24.8,-7.6,24,30.42,10.0,NNE,6.9,-,N/A,,Clear,30,2013-03-01 20:29:00
3:09 PM,24.8,-7.6,24,30.42,10.0,North,3.5,-,N/A,,Clear,360,2013-03-01 21:09:00
3:29 PM,24.8,-5.8,26,30.42,10.0,NNW,5.8,-,N/A,,Clear,340,2013-03-01 21:29:00
4:09 PM,26.6,-7.6,22,30.41,10.0,North,5.8,-,N/A,,Clear,350,2013-03-01 22:09:00
4:29 PM,26.6,-7.6,22,30.41,10.0,Calm,Calm,-,N/A,,Clear,0,2013-03-01 22:29:00
4:50 PM,26.6,-7.6,22,30.41,10.0,Calm,Calm,-,N/A,,Clear,0,2013-03-01 22:50:00
5:09 PM,24.8,-9.4,22,30.41,10.0,NNE,4.6,-,N/A,,Clear,30,2013-03-01 23:09:00
5:29 PM,21.2,-11.2,24,30.42,10.0,Calm,Calm,-,N/A,,Clear,0,2013-03-01 23:29:00
5:49 PM,17.6,-13.0,25,30.42,10.0,Calm,Calm,-,N/A,,Clear,0,2013-03-01 23:49:00
6:09 PM,15.8,-14.8,25,30.42,10.0,Calm,Calm,-,N/A,,Clear,0,2013-03-02 00:09:00
6:29 PM,10.4,-16.6,29,30.42,10.0,Calm,Calm,-,N/A,,Clear,0,2013-03-02 00:29:00
6:49 PM,8.6,-16.6,31,30.42,10.0,Calm,Calm,-,N/A,,Clear,0,2013-03-02 00:49:00
7:09 PM,6.8,-16.6,34,30.42,10.0,Calm,Calm,-,N/A,,Clear,0,2013-03-02 01:09:00
7:29 PM,3.2,-14.8,43,30.42,10.0,Calm,Calm,-,N/A,,Clear,0,2013-03-02 01:29:00
8:09 PM,-0.4,-14.8,51,30.41,10.0,Calm,Calm,-,N/A,,Clear,0,2013-03-02 02:09:00
8:29 PM,-0.4,-16.6,46,30.41,10.0,Calm,Calm,-,N/A,,Clear,0,2013-03-02 02:29:00
8:49 PM,-2.2,-16.6,50,30.41,10.0,Calm,Calm,-,N/A,,Clear,0,2013-03-02 02:49:00
9:10 PM,-4.0,-14.8,60,30.41,10.0,Calm,Calm,-,N/A,,Clear,0,2013-03-02 03:10:00
9:29 PM,-5.8,-16.6,60,30.40,10.0,Calm,Calm,-,N/A,,Clear,0,2013-03-02 03:29:00
9:49 PM,-5.8,-16.6,60,30.40,10.0,Calm,Calm,-,N/A,,Clear,0,2013-03-02 03:49:00
10:09 PM,-7.6,-16.6,65,30.39,10.0,Calm,Calm,-,N/A,,Clear,0,2013-03-02 04:09:00
10:29 PM,-7.6,-16.6,65,30.40,10.0,Calm,Calm,-,N/A,,Clear,0,2013-03-02 04:29:00
10:50 PM,-9.4,-16.6,71,30.39,10.0,Calm,Calm,-,N/A,,Clear,0,2013-03-02 04:50:00
11:10 PM,-9.4,-18.4,65,30.39,10.0,Calm,Calm,-,N/A,,Clear,0,2013-03-02 05:10:00
11:29 PM,-11.2,-18.4,70,30.39,10.0,Calm,Calm,-,N/A,,Clear,0,2013-03-02 05:29:00
11:49 PM,-11.2,-18.4,70,30.39,10.0,Calm,Calm,-,N/A,,Clear,0,2013-03-02 05:49:00